sensor_id;sensor_type;location;lat;lon;timestamp;P1;durP1;ratioP1;P2;durP2;ratioP2
10721;SDS011;5412;59.450;18.124;2024-02-15T00:01:54;9.57;;;3.13;;
10721;SDS011;5412;59.450;18.124;2024-02-15T00:04:20;7.73;;;3.23;;
10721;SDS011;5412;59.450;18.124;2024-02-15T00:06:46;8.67;;;3.00;;
10721;SDS011;5412;59.450;18.124;2024-02-15T00:09:11;8.57;;;2.73;;
10721;SDS011;5412;59.450;18.124;2024-02-15T00:11:37;10.37;;;3.23;;
10721;SDS011;5412;59.450;18.124;2024-02-15T00:14:04;9.23;;;3.10;;
10721;SDS011;5412;59.450;18.124;2024-02-15T00:16:30;8.80;;;3.40;;
10721;SDS011;5412;59.450;18.124;2024-02-15T00:18:56;13.20;;;3.93;;
10721;SDS011;5412;59.450;18.124;2024-02-15T00:21:22;12.83;;;4.33;;
10721;SDS011;5412;59.450;18.124;2024-02-15T00:23:50;13.73;;;4.77;;
10721;SDS011;5412;59.450;18.124;2024-02-15T00:26:16;13.90;;;3.77;;
10721;SDS011;5412;59.450;18.124;2024-02-15T00:28:41;11.20;;;4.30;;
10721;SDS011;5412;59.450;18.124;2024-02-15T00:31:07;18.57;;;4.80;;
10721;SDS011;5412;59.450;18.124;2024-02-15T00:33:33;16.97;;;5.40;;
10721;SDS011;5412;59.450;18.124;2024-02-15T00:36:02;13.20;;;5.07;;
10721;SDS011;5412;59.450;18.124;2024-02-15T00:38:29;29.63;;;5.80;;
10721;SDS011;5412;59.450;18.124;2024-02-15T00:40:56;21.57;;;5.90;;
10721;SDS011;5412;59.450;18.124;2024-02-15T00:43:22;14.03;;;5.10;;
10721;SDS011;5412;59.450;18.124;2024-02-15T00:45:47;24.70;;;4.87;;
10721;SDS011;5412;59.450;18.124;2024-02-15T00:48:13;28.77;;;5.10;;
10721;SDS011;5412;59.450;18.124;2024-02-15T00:50:39;23.33;;;4.80;;
10721;SDS011;5412;59.450;18.124;2024-02-15T00:53:04;14.47;;;4.33;;
10721;SDS011;5412;59.450;18.124;2024-02-15T00:55:30;31.43;;;5.30;;
10721;SDS011;5412;59.450;18.124;2024-02-15T00:57:56;18.27;;;4.50;;
10721;SDS011;5412;59.450;18.124;2024-02-15T01:00:22;20.47;;;4.50;;
10721;SDS011;5412;59.450;18.124;2024-02-15T01:02:48;31.20;;;5.43;;
10721;SDS011;5412;59.450;18.124;2024-02-15T01:05:14;19.10;;;4.53;;
10721;SDS011;5412;59.450;18.124;2024-02-15T01:07:40;84.00;;;6.17;;
10721;SDS011;5412;59.450;18.124;2024-02-15T01:10:06;49.67;;;5.50;;
10721;SDS011;5412;59.450;18.124;2024-02-15T01:12:33;29.20;;;4.70;;
10721;SDS011;5412;59.450;18.124;2024-02-15T01:14:59;29.53;;;4.80;;
10721;SDS011;5412;59.450;18.124;2024-02-15T01:17:24;50.63;;;5.60;;
10721;SDS011;5412;59.450;18.124;2024-02-15T01:19:50;27.70;;;5.10;;
10721;SDS011;5412;59.450;18.124;2024-02-15T01:22:16;26.90;;;5.10;;
10721;SDS011;5412;59.450;18.124;2024-02-15T01:24:41;20.13;;;5.40;;
10721;SDS011;5412;59.450;18.124;2024-02-15T01:27:07;20.10;;;4.33;;
10721;SDS011;5412;59.450;18.124;2024-02-15T01:29:33;20.07;;;4.53;;
10721;SDS011;5412;59.450;18.124;2024-02-15T01:32:00;30.53;;;5.20;;
10721;SDS011;5412;59.450;18.124;2024-02-15T01:34:27;18.17;;;4.97;;
10721;SDS011;5412;59.450;18.124;2024-02-15T01:36:53;18.67;;;5.33;;
10721;SDS011;5412;59.450;18.124;2024-02-15T01:39:19;29.30;;;5.67;;
10721;SDS011;5412;59.450;18.124;2024-02-15T01:41:48;50.97;;;5.40;;
10721;SDS011;5412;59.450;18.124;2024-02-15T01:44:16;21.37;;;4.43;;
10721;SDS011;5412;59.450;18.124;2024-02-15T01:46:45;19.20;;;4.03;;
10721;SDS011;5412;59.450;18.124;2024-02-15T01:49:13;24.83;;;4.97;;
10721;SDS011;5412;59.450;18.124;2024-02-15T01:51:40;20.87;;;4.47;;
10721;SDS011;5412;59.450;18.124;2024-02-15T01:54:08;30.93;;;5.03;;
10721;SDS011;5412;59.450;18.124;2024-02-15T01:56:36;25.27;;;4.97;;
10721;SDS011;5412;59.450;18.124;2024-02-15T01:59:02;17.93;;;4.23;;
10721;SDS011;5412;59.450;18.124;2024-02-15T02:01:29;25.30;;;5.33;;
10721;SDS011;5412;59.450;18.124;2024-02-15T02:03:58;61.30;;;5.77;;
10721;SDS011;5412;59.450;18.124;2024-02-15T02:06:24;44.70;;;4.60;;
10721;SDS011;5412;59.450;18.124;2024-02-15T02:08:51;20.27;;;4.13;;
10721;SDS011;5412;59.450;18.124;2024-02-15T02:11:20;20.10;;;4.27;;
10721;SDS011;5412;59.450;18.124;2024-02-15T02:13:46;18.23;;;4.57;;
10721;SDS011;5412;59.450;18.124;2024-02-15T02:16:30;38.10;;;4.70;;
10721;SDS011;5412;59.450;18.124;2024-02-15T02:18:57;39.00;;;4.60;;
10721;SDS011;5412;59.450;18.124;2024-02-15T02:21:27;79.13;;;7.43;;
10721;SDS011;5412;59.450;18.124;2024-02-15T02:23:56;26.87;;;4.13;;
10721;SDS011;5412;59.450;18.124;2024-02-15T02:26:23;30.33;;;4.27;;
10721;SDS011;5412;59.450;18.124;2024-02-15T02:28:50;23.87;;;3.97;;
10721;SDS011;5412;59.450;18.124;2024-02-15T02:31:19;44.13;;;4.90;;
10721;SDS011;5412;59.450;18.124;2024-02-15T02:33:47;25.67;;;4.47;;
10721;SDS011;5412;59.450;18.124;2024-02-15T02:36:18;25.40;;;5.40;;
10721;SDS011;5412;59.450;18.124;2024-02-15T02:38:44;72.40;;;7.40;;
10721;SDS011;5412;59.450;18.124;2024-02-15T02:41:13;11.47;;;4.60;;
10721;SDS011;5412;59.450;18.124;2024-02-15T02:43:39;29.37;;;4.23;;
10721;SDS011;5412;59.450;18.124;2024-02-15T02:46:05;16.83;;;4.13;;
10721;SDS011;5412;59.450;18.124;2024-02-15T02:48:32;27.30;;;4.87;;
10721;SDS011;5412;59.450;18.124;2024-02-15T02:50:57;66.50;;;6.10;;
10721;SDS011;5412;59.450;18.124;2024-02-15T02:53:24;24.77;;;4.60;;
10721;SDS011;5412;59.450;18.124;2024-02-15T02:55:51;47.00;;;5.07;;
10721;SDS011;5412;59.450;18.124;2024-02-15T02:58:17;11.83;;;3.37;;
10721;SDS011;5412;59.450;18.124;2024-02-15T03:00:42;39.63;;;4.67;;
10721;SDS011;5412;59.450;18.124;2024-02-15T03:03:08;115.53;;;6.83;;
10721;SDS011;5412;59.450;18.124;2024-02-15T03:05:34;26.63;;;3.67;;
10721;SDS011;5412;59.450;18.124;2024-02-15T03:08:00;106.30;;;6.60;;
10721;SDS011;5412;59.450;18.124;2024-02-15T03:10:26;9.77;;;3.53;;
10721;SDS011;5412;59.450;18.124;2024-02-15T03:12:51;18.17;;;3.17;;
10721;SDS011;5412;59.450;18.124;2024-02-15T03:15:17;9.83;;;4.03;;
10721;SDS011;5412;59.450;18.124;2024-02-15T03:17:44;13.53;;;3.70;;
10721;SDS011;5412;59.450;18.124;2024-02-15T03:20:11;57.57;;;5.20;;
10721;SDS011;5412;59.450;18.124;2024-02-15T03:22:45;15.03;;;3.60;;
10721;SDS011;5412;59.450;18.124;2024-02-15T03:25:18;24.67;;;3.83;;
10721;SDS011;5412;59.450;18.124;2024-02-15T03:27:44;87.67;;;7.03;;
10721;SDS011;5412;59.450;18.124;2024-02-15T03:30:10;116.67;;;7.37;;
10721;SDS011;5412;59.450;18.124;2024-02-15T03:32:36;45.50;;;4.10;;
10721;SDS011;5412;59.450;18.124;2024-02-15T03:35:02;53.70;;;4.37;;
10721;SDS011;5412;59.450;18.124;2024-02-15T03:37:28;131.33;;;9.47;;
10721;SDS011;5412;59.450;18.124;2024-02-15T03:39:54;10.00;;;3.30;;
10721;SDS011;5412;59.450;18.124;2024-02-15T03:42:20;238.37;;;15.40;;
10721;SDS011;5412;59.450;18.124;2024-02-15T03:44:46;183.10;;;10.80;;
10721;SDS011;5412;59.450;18.124;2024-02-15T03:47:13;110.87;;;6.77;;
10721;SDS011;5412;59.450;18.124;2024-02-15T03:49:40;116.30;;;7.03;;
10721;SDS011;5412;59.450;18.124;2024-02-15T03:52:07;106.43;;;6.53;;
10721;SDS011;5412;59.450;18.124;2024-02-15T03:54:35;44.23;;;4.43;;
10721;SDS011;5412;59.450;18.124;2024-02-15T03:57:01;41.20;;;4.77;;
10721;SDS011;5412;59.450;18.124;2024-02-15T03:59:27;45.47;;;4.60;;
10721;SDS011;5412;59.450;18.124;2024-02-15T04:01:53;48.17;;;6.60;;
10721;SDS011;5412;59.450;18.124;2024-02-15T04:04:19;26.53;;;4.93;;
10721;SDS011;5412;59.450;18.124;2024-02-15T04:06:51;21.30;;;3.60;;
10721;SDS011;5412;59.450;18.124;2024-02-15T04:09:17;21.97;;;3.20;;
10721;SDS011;5412;59.450;18.124;2024-02-15T04:11:45;38.00;;;4.47;;
10721;SDS011;5412;59.450;18.124;2024-02-15T04:14:14;46.90;;;5.10;;
10721;SDS011;5412;59.450;18.124;2024-02-15T04:16:43;19.10;;;3.03;;
10721;SDS011;5412;59.450;18.124;2024-02-15T04:19:09;22.87;;;3.70;;
10721;SDS011;5412;59.450;18.124;2024-02-15T04:21:36;18.43;;;4.13;;
10721;SDS011;5412;59.450;18.124;2024-02-15T04:24:02;7.57;;;3.20;;
10721;SDS011;5412;59.450;18.124;2024-02-15T04:26:28;17.17;;;2.87;;
10721;SDS011;5412;59.450;18.124;2024-02-15T04:28:55;39.57;;;5.73;;
10721;SDS011;5412;59.450;18.124;2024-02-15T04:31:21;66.50;;;5.30;;
10721;SDS011;5412;59.450;18.124;2024-02-15T04:33:53;96.53;;;6.93;;
10721;SDS011;5412;59.450;18.124;2024-02-15T04:36:19;74.50;;;4.87;;
10721;SDS011;5412;59.450;18.124;2024-02-15T04:38:51;28.33;;;4.57;;
10721;SDS011;5412;59.450;18.124;2024-02-15T04:41:18;9.30;;;3.47;;
10721;SDS011;5412;59.450;18.124;2024-02-15T04:43:47;19.40;;;3.57;;
10721;SDS011;5412;59.450;18.124;2024-02-15T04:46:14;42.97;;;4.80;;
10721;SDS011;5412;59.450;18.124;2024-02-15T04:48:40;35.60;;;4.57;;
10721;SDS011;5412;59.450;18.124;2024-02-15T04:51:07;22.30;;;3.87;;
10721;SDS011;5412;59.450;18.124;2024-02-15T04:53:36;15.27;;;3.70;;
10721;SDS011;5412;59.450;18.124;2024-02-15T04:56:03;19.90;;;3.70;;
10721;SDS011;5412;59.450;18.124;2024-02-15T04:58:39;21.40;;;3.33;;
10721;SDS011;5412;59.450;18.124;2024-02-15T05:01:14;18.97;;;3.20;;
10721;SDS011;5412;59.450;18.124;2024-02-15T05:03:41;12.33;;;3.00;;
10721;SDS011;5412;59.450;18.124;2024-02-15T05:06:10;47.53;;;4.10;;
10721;SDS011;5412;59.450;18.124;2024-02-15T05:08:38;31.43;;;3.97;;
10721;SDS011;5412;59.450;18.124;2024-02-15T05:11:10;51.93;;;4.77;;
10721;SDS011;5412;59.450;18.124;2024-02-15T05:13:43;97.77;;;6.60;;
10721;SDS011;5412;59.450;18.124;2024-02-15T05:16:12;13.87;;;3.60;;
10721;SDS011;5412;59.450;18.124;2024-02-15T05:18:38;23.07;;;3.50;;
10721;SDS011;5412;59.450;18.124;2024-02-15T05:21:05;17.27;;;3.70;;
10721;SDS011;5412;59.450;18.124;2024-02-15T05:23:37;32.80;;;3.87;;
10721;SDS011;5412;59.450;18.124;2024-02-15T05:26:08;18.03;;;3.63;;
10721;SDS011;5412;59.450;18.124;2024-02-15T05:28:34;26.10;;;3.63;;
10721;SDS011;5412;59.450;18.124;2024-02-15T05:33:37;93.87;;;7.43;;
10721;SDS011;5412;59.450;18.124;2024-02-15T05:36:09;10.30;;;3.33;;
10721;SDS011;5412;59.450;18.124;2024-02-15T05:38:46;42.43;;;4.30;;
10721;SDS011;5412;59.450;18.124;2024-02-15T05:41:13;22.00;;;4.67;;
10721;SDS011;5412;59.450;18.124;2024-02-15T05:43:39;40.97;;;4.57;;
10721;SDS011;5412;59.450;18.124;2024-02-15T05:46:09;114.80;;;7.43;;
10721;SDS011;5412;59.450;18.124;2024-02-15T05:48:35;17.57;;;3.60;;
10721;SDS011;5412;59.450;18.124;2024-02-15T05:51:02;73.93;;;5.80;;
10721;SDS011;5412;59.450;18.124;2024-02-15T05:53:29;64.30;;;5.90;;
10721;SDS011;5412;59.450;18.124;2024-02-15T05:55:55;66.43;;;5.97;;
10721;SDS011;5412;59.450;18.124;2024-02-15T05:58:23;85.93;;;5.97;;
10721;SDS011;5412;59.450;18.124;2024-02-15T06:00:49;144.83;;;8.83;;
10721;SDS011;5412;59.450;18.124;2024-02-15T06:03:18;94.70;;;7.00;;
10721;SDS011;5412;59.450;18.124;2024-02-15T06:05:48;80.70;;;6.90;;
10721;SDS011;5412;59.450;18.124;2024-02-15T06:08:13;14.73;;;4.07;;
10721;SDS011;5412;59.450;18.124;2024-02-15T06:10:40;99.10;;;7.33;;
10721;SDS011;5412;59.450;18.124;2024-02-15T06:13:06;62.87;;;6.83;;
10721;SDS011;5412;59.450;18.124;2024-02-15T06:15:34;57.33;;;5.47;;
10721;SDS011;5412;59.450;18.124;2024-02-15T06:18:01;52.63;;;6.70;;
10721;SDS011;5412;59.450;18.124;2024-02-15T06:20:29;42.27;;;5.60;;
10721;SDS011;5412;59.450;18.124;2024-02-15T06:22:55;31.40;;;5.03;;
10721;SDS011;5412;59.450;18.124;2024-02-15T06:25:21;36.33;;;7.43;;
10721;SDS011;5412;59.450;18.124;2024-02-15T06:27:48;90.90;;;7.13;;
10721;SDS011;5412;59.450;18.124;2024-02-15T06:30:16;46.07;;;4.77;;
10721;SDS011;5412;59.450;18.124;2024-02-15T06:33:08;30.13;;;4.40;;
10721;SDS011;5412;59.450;18.124;2024-02-15T06:35:52;20.90;;;4.07;;
10721;SDS011;5412;59.450;18.124;2024-02-15T06:38:36;31.90;;;4.27;;
10721;SDS011;5412;59.450;18.124;2024-02-15T06:41:20;50.13;;;5.40;;
10721;SDS011;5412;59.450;18.124;2024-02-15T06:43:46;41.90;;;5.97;;
10721;SDS011;5412;59.450;18.124;2024-02-15T06:46:12;26.67;;;4.77;;
10721;SDS011;5412;59.450;18.124;2024-02-15T06:48:41;26.20;;;4.47;;
10721;SDS011;5412;59.450;18.124;2024-02-15T06:51:11;25.37;;;4.93;;
10721;SDS011;5412;59.450;18.124;2024-02-15T06:53:39;14.73;;;4.03;;
10721;SDS011;5412;59.450;18.124;2024-02-15T06:56:05;21.43;;;4.40;;
10721;SDS011;5412;59.450;18.124;2024-02-15T06:58:35;19.03;;;5.57;;
10721;SDS011;5412;59.450;18.124;2024-02-15T07:01:01;10.33;;;4.10;;
10721;SDS011;5412;59.450;18.124;2024-02-15T07:03:28;20.77;;;4.83;;
10721;SDS011;5412;59.450;18.124;2024-02-15T07:05:55;20.20;;;4.93;;
10721;SDS011;5412;59.450;18.124;2024-02-15T07:08:21;11.83;;;4.67;;
10721;SDS011;5412;59.450;18.124;2024-02-15T07:10:49;33.53;;;4.80;;
10721;SDS011;5412;59.450;18.124;2024-02-15T07:13:16;46.50;;;6.33;;
10721;SDS011;5412;59.450;18.124;2024-02-15T07:15:42;8.90;;;4.17;;
10721;SDS011;5412;59.450;18.124;2024-02-15T07:18:09;5.53;;;3.50;;
10721;SDS011;5412;59.450;18.124;2024-02-15T07:20:37;10.77;;;4.50;;
10721;SDS011;5412;59.450;18.124;2024-02-15T07:23:03;11.10;;;4.13;;
10721;SDS011;5412;59.450;18.124;2024-02-15T07:25:30;7.80;;;4.17;;
10721;SDS011;5412;59.450;18.124;2024-02-15T07:27:56;55.13;;;6.00;;
10721;SDS011;5412;59.450;18.124;2024-02-15T07:30:22;13.23;;;4.50;;
10721;SDS011;5412;59.450;18.124;2024-02-15T07:32:48;7.80;;;4.47;;
10721;SDS011;5412;59.450;18.124;2024-02-15T07:35:14;12.87;;;4.33;;
10721;SDS011;5412;59.450;18.124;2024-02-15T07:37:52;6.63;;;4.37;;
10721;SDS011;5412;59.450;18.124;2024-02-15T07:40:20;20.07;;;4.50;;
10721;SDS011;5412;59.450;18.124;2024-02-15T07:42:47;6.53;;;4.20;;
10721;SDS011;5412;59.450;18.124;2024-02-15T07:45:14;11.13;;;4.30;;
10721;SDS011;5412;59.450;18.124;2024-02-15T07:47:40;8.03;;;4.07;;
10721;SDS011;5412;59.450;18.124;2024-02-15T07:50:06;9.97;;;4.63;;
10721;SDS011;5412;59.450;18.124;2024-02-15T07:52:34;24.77;;;5.20;;
10721;SDS011;5412;59.450;18.124;2024-02-15T07:55:00;26.20;;;5.73;;
10721;SDS011;5412;59.450;18.124;2024-02-15T07:57:33;5.93;;;3.80;;
10721;SDS011;5412;59.450;18.124;2024-02-15T08:00:00;13.20;;;4.30;;
10721;SDS011;5412;59.450;18.124;2024-02-15T08:02:25;12.83;;;4.60;;
10721;SDS011;5412;59.450;18.124;2024-02-15T08:04:53;12.17;;;4.67;;
10721;SDS011;5412;59.450;18.124;2024-02-15T08:07:19;7.17;;;4.70;;
10721;SDS011;5412;59.450;18.124;2024-02-15T08:09:46;11.07;;;5.80;;
10721;SDS011;5412;59.450;18.124;2024-02-15T08:12:15;16.13;;;5.50;;
10721;SDS011;5412;59.450;18.124;2024-02-15T08:14:41;13.60;;;4.70;;
10721;SDS011;5412;59.450;18.124;2024-02-15T08:17:07;30.33;;;5.50;;
10721;SDS011;5412;59.450;18.124;2024-02-15T08:19:33;21.67;;;4.50;;
10721;SDS011;5412;59.450;18.124;2024-02-15T08:22:08;22.50;;;5.03;;
10721;SDS011;5412;59.450;18.124;2024-02-15T08:24:34;15.13;;;4.73;;
10721;SDS011;5412;59.450;18.124;2024-02-15T08:27:01;16.23;;;5.43;;
10721;SDS011;5412;59.450;18.124;2024-02-15T08:29:29;24.53;;;4.80;;
10721;SDS011;5412;59.450;18.124;2024-02-15T08:31:55;28.80;;;5.33;;
10721;SDS011;5412;59.450;18.124;2024-02-15T08:34:21;18.87;;;4.70;;
10721;SDS011;5412;59.450;18.124;2024-02-15T08:36:46;11.53;;;5.37;;
10721;SDS011;5412;59.450;18.124;2024-02-15T08:39:13;13.40;;;4.63;;
10721;SDS011;5412;59.450;18.124;2024-02-15T08:41:41;8.07;;;4.60;;
10721;SDS011;5412;59.450;18.124;2024-02-15T08:44:07;27.23;;;5.90;;
10721;SDS011;5412;59.450;18.124;2024-02-15T08:46:36;24.33;;;5.37;;
10721;SDS011;5412;59.450;18.124;2024-02-15T08:49:02;14.33;;;5.03;;
10721;SDS011;5412;59.450;18.124;2024-02-15T08:51:28;16.27;;;5.73;;
10721;SDS011;5412;59.450;18.124;2024-02-15T08:53:57;28.67;;;5.67;;
10721;SDS011;5412;59.450;18.124;2024-02-15T08:56:25;15.47;;;4.97;;
10721;SDS011;5412;59.450;18.124;2024-02-15T08:58:50;14.10;;;5.60;;
10721;SDS011;5412;59.450;18.124;2024-02-15T09:01:16;25.87;;;5.43;;
10721;SDS011;5412;59.450;18.124;2024-02-15T09:03:42;33.43;;;5.27;;
10721;SDS011;5412;59.450;18.124;2024-02-15T09:06:10;16.60;;;5.00;;
10721;SDS011;5412;59.450;18.124;2024-02-15T09:08:35;16.93;;;5.03;;
10721;SDS011;5412;59.450;18.124;2024-02-15T09:11:01;17.80;;;5.07;;
10721;SDS011;5412;59.450;18.124;2024-02-15T09:13:27;26.70;;;6.37;;
10721;SDS011;5412;59.450;18.124;2024-02-15T09:15:52;12.17;;;5.40;;
10721;SDS011;5412;59.450;18.124;2024-02-15T09:18:18;33.57;;;5.67;;
10721;SDS011;5412;59.450;18.124;2024-02-15T09:20:46;31.37;;;5.10;;
10721;SDS011;5412;59.450;18.124;2024-02-15T09:23:13;14.73;;;5.53;;
10721;SDS011;5412;59.450;18.124;2024-02-15T09:25:40;20.07;;;5.10;;
10721;SDS011;5412;59.450;18.124;2024-02-15T09:28:09;12.87;;;4.00;;
10721;SDS011;5412;59.450;18.124;2024-02-15T09:30:35;61.60;;;6.57;;
10721;SDS011;5412;59.450;18.124;2024-02-15T09:33:01;36.73;;;5.50;;
10721;SDS011;5412;59.450;18.124;2024-02-15T09:35:30;21.60;;;5.37;;
10721;SDS011;5412;59.450;18.124;2024-02-15T09:37:56;26.87;;;5.50;;
10721;SDS011;5412;59.450;18.124;2024-02-15T09:40:22;17.33;;;4.67;;
10721;SDS011;5412;59.450;18.124;2024-02-15T09:42:54;29.57;;;5.53;;
10721;SDS011;5412;59.450;18.124;2024-02-15T09:45:20;33.27;;;5.97;;
10721;SDS011;5412;59.450;18.124;2024-02-15T09:47:46;19.63;;;4.20;;
10721;SDS011;5412;59.450;18.124;2024-02-15T09:50:15;15.27;;;4.57;;
10721;SDS011;5412;59.450;18.124;2024-02-15T09:52:46;22.57;;;4.37;;
10721;SDS011;5412;59.450;18.124;2024-02-15T09:55:16;17.23;;;5.13;;
10721;SDS011;5412;59.450;18.124;2024-02-15T09:57:43;14.43;;;5.20;;
10721;SDS011;5412;59.450;18.124;2024-02-15T10:00:10;17.20;;;6.67;;
10721;SDS011;5412;59.450;18.124;2024-02-15T10:02:49;12.67;;;5.00;;
10721;SDS011;5412;59.450;18.124;2024-02-15T10:05:18;17.03;;;5.40;;
10721;SDS011;5412;59.450;18.124;2024-02-15T10:07:44;11.97;;;5.40;;
10721;SDS011;5412;59.450;18.124;2024-02-15T10:12:44;11.53;;;6.13;;
10721;SDS011;5412;59.450;18.124;2024-02-15T10:15:31;15.63;;;6.67;;
10721;SDS011;5412;59.450;18.124;2024-02-15T10:18:01;12.47;;;6.60;;
10721;SDS011;5412;59.450;18.124;2024-02-15T10:20:28;9.37;;;6.07;;
10721;SDS011;5412;59.450;18.124;2024-02-15T10:25:28;11.47;;;6.27;;
10721;SDS011;5412;59.450;18.124;2024-02-15T10:30:34;13.00;;;7.47;;
10721;SDS011;5412;59.450;18.124;2024-02-15T10:33:01;12.37;;;7.47;;
10721;SDS011;5412;59.450;18.124;2024-02-15T10:35:27;11.67;;;7.70;;
10721;SDS011;5412;59.450;18.124;2024-02-15T10:37:58;13.70;;;7.10;;
10721;SDS011;5412;59.450;18.124;2024-02-15T10:40:32;10.10;;;6.97;;
10721;SDS011;5412;59.450;18.124;2024-02-15T10:42:58;7.93;;;6.33;;
10721;SDS011;5412;59.450;18.124;2024-02-15T10:45:27;9.33;;;7.00;;
10721;SDS011;5412;59.450;18.124;2024-02-15T10:47:55;10.13;;;6.23;;
10721;SDS011;5412;59.450;18.124;2024-02-15T10:50:22;11.60;;;7.67;;
10721;SDS011;5412;59.450;18.124;2024-02-15T10:52:54;9.17;;;6.57;;
10721;SDS011;5412;59.450;18.124;2024-02-15T10:55:46;9.53;;;6.90;;
10721;SDS011;5412;59.450;18.124;2024-02-15T10:58:16;10.07;;;7.00;;
10721;SDS011;5412;59.450;18.124;2024-02-15T11:00:46;9.03;;;6.70;;
10721;SDS011;5412;59.450;18.124;2024-02-15T11:03:17;8.90;;;5.77;;
10721;SDS011;5412;59.450;18.124;2024-02-15T11:05:49;9.37;;;6.67;;
10721;SDS011;5412;59.450;18.124;2024-02-15T11:08:15;10.37;;;6.23;;
10721;SDS011;5412;59.450;18.124;2024-02-15T11:10:42;8.97;;;6.40;;
10721;SDS011;5412;59.450;18.124;2024-02-15T11:13:08;8.60;;;6.80;;
10721;SDS011;5412;59.450;18.124;2024-02-15T11:18:01;9.90;;;6.63;;
10721;SDS011;5412;59.450;18.124;2024-02-15T11:23:01;9.23;;;6.23;;
10721;SDS011;5412;59.450;18.124;2024-02-15T11:25:36;10.37;;;6.07;;
10721;SDS011;5412;59.450;18.124;2024-02-15T11:30:53;10.37;;;7.10;;
10721;SDS011;5412;59.450;18.124;2024-02-15T11:33:31;12.60;;;7.00;;
10721;SDS011;5412;59.450;18.124;2024-02-15T11:36:24;22.13;;;7.27;;
10721;SDS011;5412;59.450;18.124;2024-02-15T11:38:55;9.97;;;6.73;;
10721;SDS011;5412;59.450;18.124;2024-02-15T11:41:20;11.80;;;6.90;;
10721;SDS011;5412;59.450;18.124;2024-02-15T11:43:48;9.17;;;6.37;;
10721;SDS011;5412;59.450;18.124;2024-02-15T11:46:15;9.07;;;6.90;;
10721;SDS011;5412;59.450;18.124;2024-02-15T11:48:48;10.80;;;6.97;;
10721;SDS011;5412;59.450;18.124;2024-02-15T11:51:30;9.83;;;6.13;;
10721;SDS011;5412;59.450;18.124;2024-02-15T11:53:59;13.17;;;7.23;;
10721;SDS011;5412;59.450;18.124;2024-02-15T11:56:24;10.93;;;7.37;;
10721;SDS011;5412;59.450;18.124;2024-02-15T11:59:01;10.17;;;6.90;;
10721;SDS011;5412;59.450;18.124;2024-02-15T12:01:31;12.80;;;7.33;;
10721;SDS011;5412;59.450;18.124;2024-02-15T12:04:16;18.60;;;7.73;;
10721;SDS011;5412;59.450;18.124;2024-02-15T12:07:02;12.57;;;7.43;;
10721;SDS011;5412;59.450;18.124;2024-02-15T12:09:46;13.30;;;7.47;;
10721;SDS011;5412;59.450;18.124;2024-02-15T12:12:30;12.50;;;8.03;;
10721;SDS011;5412;59.450;18.124;2024-02-15T12:15:14;12.87;;;7.47;;
10721;SDS011;5412;59.450;18.124;2024-02-15T12:18:14;11.57;;;7.37;;
10721;SDS011;5412;59.450;18.124;2024-02-15T12:20:59;10.83;;;6.63;;
10721;SDS011;5412;59.450;18.124;2024-02-15T12:23:27;22.13;;;8.67;;
10721;SDS011;5412;59.450;18.124;2024-02-15T12:25:53;11.07;;;7.30;;
10721;SDS011;5412;59.450;18.124;2024-02-15T12:28:19;13.23;;;7.10;;
10721;SDS011;5412;59.450;18.124;2024-02-15T12:30:45;11.20;;;7.40;;
10721;SDS011;5412;59.450;18.124;2024-02-15T12:33:11;12.63;;;7.37;;
10721;SDS011;5412;59.450;18.124;2024-02-15T12:35:44;47.23;;;7.57;;
10721;SDS011;5412;59.450;18.124;2024-02-15T12:38:09;32.97;;;7.33;;
10721;SDS011;5412;59.450;18.124;2024-02-15T12:40:40;9.50;;;6.63;;
10721;SDS011;5412;59.450;18.124;2024-02-15T12:43:06;44.03;;;6.77;;
10721;SDS011;5412;59.450;18.124;2024-02-15T12:45:35;11.43;;;7.60;;
10721;SDS011;5412;59.450;18.124;2024-02-15T12:48:05;15.70;;;6.63;;
10721;SDS011;5412;59.450;18.124;2024-02-15T12:50:32;15.77;;;6.77;;
10721;SDS011;5412;59.450;18.124;2024-02-15T12:52:59;36.90;;;7.70;;
10721;SDS011;5412;59.450;18.124;2024-02-15T12:55:29;13.67;;;6.50;;
10721;SDS011;5412;59.450;18.124;2024-02-15T12:58:02;19.17;;;7.07;;
10721;SDS011;5412;59.450;18.124;2024-02-15T13:00:33;30.43;;;7.80;;
10721;SDS011;5412;59.450;18.124;2024-02-15T13:03:04;52.17;;;9.17;;
10721;SDS011;5412;59.450;18.124;2024-02-15T13:05:33;16.47;;;7.10;;
10721;SDS011;5412;59.450;18.124;2024-02-15T13:08:01;63.87;;;9.40;;
10721;SDS011;5412;59.450;18.124;2024-02-15T13:10:28;15.57;;;8.40;;
10721;SDS011;5412;59.450;18.124;2024-02-15T13:12:54;26.57;;;8.23;;
10721;SDS011;5412;59.450;18.124;2024-02-15T13:15:21;38.87;;;8.10;;
10721;SDS011;5412;59.450;18.124;2024-02-15T13:17:52;25.90;;;7.60;;
10721;SDS011;5412;59.450;18.124;2024-02-15T13:20:21;39.03;;;8.30;;
10721;SDS011;5412;59.450;18.124;2024-02-15T13:22:57;19.67;;;6.57;;
10721;SDS011;5412;59.450;18.124;2024-02-15T13:25:36;56.60;;;7.87;;
10721;SDS011;5412;59.450;18.124;2024-02-15T13:28:04;19.07;;;6.67;;
10721;SDS011;5412;59.450;18.124;2024-02-15T13:30:31;11.83;;;7.00;;
10721;SDS011;5412;59.450;18.124;2024-02-15T13:32:57;36.17;;;7.23;;
10721;SDS011;5412;59.450;18.124;2024-02-15T13:35:23;70.97;;;8.93;;
10721;SDS011;5412;59.450;18.124;2024-02-15T13:37:50;27.10;;;7.53;;
10721;SDS011;5412;59.450;18.124;2024-02-15T13:40:19;13.00;;;7.17;;
10721;SDS011;5412;59.450;18.124;2024-02-15T13:42:53;16.67;;;8.00;;
10721;SDS011;5412;59.450;18.124;2024-02-15T13:45:23;53.03;;;9.10;;
10721;SDS011;5412;59.450;18.124;2024-02-15T13:47:57;20.87;;;7.83;;
10721;SDS011;5412;59.450;18.124;2024-02-15T13:50:28;18.50;;;7.73;;
10721;SDS011;5412;59.450;18.124;2024-02-15T13:52:55;47.53;;;8.43;;
10721;SDS011;5412;59.450;18.124;2024-02-15T13:55:20;29.47;;;8.97;;
10721;SDS011;5412;59.450;18.124;2024-02-15T13:57:46;32.50;;;8.73;;
10721;SDS011;5412;59.450;18.124;2024-02-15T14:00:13;22.20;;;7.93;;
10721;SDS011;5412;59.450;18.124;2024-02-15T14:02:53;65.80;;;11.90;;
10721;SDS011;5412;59.450;18.124;2024-02-15T14:05:21;132.73;;;12.77;;
10721;SDS011;5412;59.450;18.124;2024-02-15T14:07:57;31.90;;;9.43;;
10721;SDS011;5412;59.450;18.124;2024-02-15T14:10:31;121.60;;;13.97;;
10721;SDS011;5412;59.450;18.124;2024-02-15T14:12:58;24.20;;;8.83;;
10721;SDS011;5412;59.450;18.124;2024-02-15T14:15:25;33.53;;;9.50;;
10721;SDS011;5412;59.450;18.124;2024-02-15T14:17:51;22.20;;;8.40;;
10721;SDS011;5412;59.450;18.124;2024-02-15T14:20:17;19.47;;;8.10;;
10721;SDS011;5412;59.450;18.124;2024-02-15T14:22:47;26.33;;;8.93;;
10721;SDS011;5412;59.450;18.124;2024-02-15T14:25:17;26.90;;;9.20;;
10721;SDS011;5412;59.450;18.124;2024-02-15T14:27:44;39.43;;;9.70;;
10721;SDS011;5412;59.450;18.124;2024-02-15T14:30:10;63.93;;;10.87;;
10721;SDS011;5412;59.450;18.124;2024-02-15T14:32:55;77.93;;;11.90;;
10721;SDS011;5412;59.450;18.124;2024-02-15T14:35:34;29.23;;;9.67;;
10721;SDS011;5412;59.450;18.124;2024-02-15T14:38:03;39.17;;;11.17;;
10721;SDS011;5412;59.450;18.124;2024-02-15T14:40:36;38.00;;;10.67;;
10721;SDS011;5412;59.450;18.124;2024-02-15T14:43:03;82.87;;;12.30;;
10721;SDS011;5412;59.450;18.124;2024-02-15T14:45:33;161.97;;;12.70;;
10721;SDS011;5412;59.450;18.124;2024-02-15T14:47:59;195.80;;;13.13;;
10721;SDS011;5412;59.450;18.124;2024-02-15T14:50:25;89.97;;;10.33;;
10721;SDS011;5412;59.450;18.124;2024-02-15T14:52:51;157.17;;;11.87;;
10721;SDS011;5412;59.450;18.124;2024-02-15T14:55:18;141.57;;;11.77;;
10721;SDS011;5412;59.450;18.124;2024-02-15T14:57:44;123.37;;;11.03;;
10721;SDS011;5412;59.450;18.124;2024-02-15T15:00:11;177.03;;;14.40;;